createdAt,value
2023-01-30T00:01:58.051Z,101385.13
2023-01-30T00:04:27.248Z,101364.59
2023-01-30T00:06:55.070Z,101375.81
2023-01-30T00:09:22.880Z,101380.13
2023-01-30T00:11:50.637Z,101375.91
2023-01-30T00:14:18.430Z,101370.88
2023-01-30T00:16:46.282Z,101370.97
2023-01-30T00:19:14.059Z,101368.41
2023-01-30T00:21:43.165Z,101339.22
2023-01-30T00:24:11.112Z,101334.88
2023-01-30T00:26:39.032Z,101341.03
2023-01-30T00:29:07.446Z,101329.81
2023-01-30T00:31:35.322Z,101324.72
2023-01-30T00:34:03.341Z,101334.31
2023-01-30T00:36:31.157Z,101324.84
2023-01-30T00:39:01.353Z,101325.75
2023-01-30T00:41:49.178Z,101315.47
2023-01-30T00:44:34.731Z,101323.31
2023-01-30T00:47:09.086Z,101327.69
2023-01-30T00:49:37.918Z,101319.16
2023-01-30T00:52:07.000Z,101314.84
2023-01-30T00:54:36.326Z,101316.59
2023-01-30T00:57:04.309Z,101306.38
2023-01-30T00:59:32.327Z,101303.03
2023-01-30T01:02:00.178Z,101298.78
2023-01-30T01:04:28.279Z,101279.88
2023-01-30T01:06:56.093Z,101287.69
2023-01-30T01:09:24.016Z,101298.00
2023-01-30T01:11:55.005Z,101285.16
2023-01-30T01:14:22.850Z,101267.91
2023-01-30T01:16:50.961Z,101261.09
2023-01-30T01:19:18.828Z,101267.22
2023-01-30T01:21:46.626Z,101262.03
2023-01-30T01:24:15.640Z,101269.78
2023-01-30T01:26:44.225Z,101284.53
2023-01-30T01:29:17.968Z,101278.47
2023-01-30T01:31:46.516Z,101276.84
2023-01-30T01:34:16.238Z,101272.50
2023-01-30T01:36:54.342Z,101269.97
2023-01-30T01:39:22.869Z,101269.97
2023-01-30T01:41:50.586Z,101265.75
2023-01-30T01:44:19.779Z,101257.94
2023-01-30T01:46:51.126Z,101255.34
2023-01-30T01:49:23.962Z,101263.09
2023-01-30T01:51:56.419Z,101264.00
2023-01-30T01:54:29.510Z,101258.00
2023-01-30T01:56:57.354Z,101259.72
2023-01-30T01:59:31.261Z,101252.03
2023-01-30T02:02:02.838Z,101245.13
2023-01-30T02:04:50.568Z,101240.91
2023-01-30T02:07:22.400Z,101243.53
2023-01-30T02:09:51.609Z,101246.97
2023-01-30T02:12:21.259Z,101234.97
2023-01-30T02:14:51.651Z,101227.28
2023-01-30T02:17:19.550Z,101216.13
2023-01-30T02:19:54.294Z,101217.81
2023-01-30T02:23:05.903Z,101211.78
2023-01-30T02:26:00.545Z,101202.38
2023-01-30T02:28:43.839Z,101199.84
2023-01-30T02:31:23.691Z,101197.25
2023-01-30T02:33:58.305Z,101189.50
2023-01-30T02:36:33.565Z,101183.47
2023-01-30T02:39:11.456Z,101177.44
2023-01-30T02:41:49.707Z,101169.75
2023-01-30T02:44:26.049Z,101172.34
2023-01-30T02:49:53.255Z,101161.94
2023-01-30T02:52:22.933Z,101151.66
2023-01-30T02:54:50.787Z,101156.00
2023-01-30T02:57:35.109Z,101151.72
2023-01-30T03:00:06.282Z,101148.25
2023-01-30T03:03:10.816Z,101148.25
2023-01-30T03:06:03.555Z,101128.56
2023-01-30T03:08:40.406Z,101133.00
2023-01-30T03:11:10.472Z,101135.63
2023-01-30T03:13:49.146Z,101136.63
2023-01-30T03:16:24.610Z,101129.81
2023-01-30T03:18:53.913Z,101113.44
2023-01-30T03:21:21.764Z,101113.44
2023-01-30T03:23:51.890Z,101113.53
2023-01-30T03:26:23.791Z,101108.34
2023-01-30T03:28:53.857Z,101104.16
2023-01-30T03:31:22.012Z,101101.56
2023-01-30T03:33:49.928Z,101100.81
2023-01-30T03:36:19.659Z,101101.69
2023-01-30T03:38:47.791Z,101093.94
2023-01-30T03:41:15.675Z,101101.66
2023-01-30T03:43:43.461Z,101090.56
2023-01-30T03:46:11.404Z,101078.59
2023-01-30T03:48:40.163Z,101082.09
2023-01-30T03:51:08.540Z,101064.94
2023-01-30T03:53:37.729Z,101060.75
2023-01-30T03:56:06.791Z,101058.19
2023-01-30T03:58:36.595Z,101046.03
2023-01-30T04:01:16.887Z,101045.25
2023-01-30T04:03:44.710Z,101044.47
2023-01-30T04:06:12.784Z,101052.25
2023-01-30T04:08:42.517Z,101042.72
2023-01-30T04:11:16.806Z,101034.19
2023-01-30T04:13:44.575Z,101026.50
2023-01-30T04:16:18.500Z,101026.53
2023-01-30T04:19:04.996Z,101023.06
2023-01-30T04:21:34.255Z,101016.28
2023-01-30T04:24:03.486Z,101024.00
2023-01-30T04:26:31.356Z,101017.06
2023-01-30T04:28:59.213Z,101013.66
2023-01-30T04:31:29.067Z,101011.94
2023-01-30T04:34:19.657Z,101020.56
2023-01-30T04:36:47.543Z,101019.66
2023-01-30T04:39:17.198Z,101018.03
2023-01-30T04:41:45.188Z,101012.81
2023-01-30T04:44:13.389Z,101012.81
2023-01-30T04:46:58.216Z,101018.91
2023-01-30T04:49:26.131Z,101015.41
2023-01-30T04:51:55.736Z,101021.44
2023-01-30T04:54:24.985Z,101016.31
2023-01-30T04:56:52.944Z,101013.69
2023-01-30T04:59:20.815Z,101006.81
2023-01-30T05:01:50.437Z,101010.25
2023-01-30T05:04:18.420Z,101012.03
2023-01-30T05:06:46.208Z,101010.28
2023-01-30T05:09:14.019Z,101004.28
2023-01-30T05:11:43.269Z,101003.41
2023-01-30T05:14:11.084Z,100996.50
2023-01-30T05:16:38.866Z,100993.91
2023-01-30T05:19:06.725Z,100987.03
2023-01-30T05:21:34.515Z,100993.94
2023-01-30T05:24:02.295Z,100987.03
2023-01-30T05:26:30.124Z,100977.56
2023-01-30T05:28:59.427Z,100976.78
2023-01-30T05:31:27.379Z,100969.84
2023-01-30T05:33:55.273Z,100982.06
2023-01-30T05:36:24.699Z,100982.88
2023-01-30T05:38:52.612Z,100978.56
2023-01-30T05:41:20.568Z,100961.31
2023-01-30T05:43:50.681Z,100963.91
2023-01-30T05:46:20.288Z,100961.31
2023-01-30T05:48:48.135Z,100963.03
2023-01-30T05:51:18.130Z,100966.44
2023-01-30T05:53:46.146Z,100965.56
2023-01-30T05:56:14.226Z,100969.88
2023-01-30T05:58:42.171Z,100977.66
2023-01-30T06:01:13.812Z,100962.06
2023-01-30T06:03:42.995Z,100969.84
2023-01-30T06:06:12.434Z,100978.50
2023-01-30T06:08:40.811Z,100981.94
2023-01-30T06:11:10.541Z,100975.03
2023-01-30T06:13:39.522Z,100975.91
2023-01-30T06:16:08.518Z,100975.88
2023-01-30T06:18:36.767Z,100974.16
2023-01-30T06:21:06.685Z,100958.63
2023-01-30T06:23:34.978Z,100962.06
2023-01-30T06:26:04.956Z,100966.41
2023-01-30T06:28:33.757Z,100981.94
2023-01-30T06:31:01.805Z,100976.81
2023-01-30T06:33:29.693Z,100981.97
2023-01-30T06:35:57.509Z,100986.31
2023-01-30T06:38:26.699Z,100998.41
2023-01-30T06:40:54.557Z,101005.38
2023-01-30T06:43:22.286Z,101001.06
2023-01-30T06:45:50.144Z,100997.66
2023-01-30T06:48:18.091Z,100993.31
2023-01-30T06:50:48.371Z,100981.28
2023-01-30T06:53:16.297Z,101003.75
2023-01-30T06:55:45.499Z,100978.69
2023-01-30T06:58:15.571Z,100996.00
2023-01-30T07:00:44.169Z,100990.84
2023-01-30T07:03:12.730Z,100994.28
2023-01-30T07:05:41.132Z,100995.19
2023-01-30T07:08:09.243Z,101001.25
2023-01-30T07:10:37.182Z,101012.50
2023-01-30T07:13:06.741Z,101003.84
2023-01-30T07:15:34.882Z,101019.41
2023-01-30T07:18:02.881Z,101034.94
2023-01-30T07:20:31.352Z,101014.22
2023-01-30T07:22:59.597Z,101016.00
2023-01-30T07:25:29.566Z,101027.19
2023-01-30T07:27:59.259Z,101012.53
2023-01-30T07:30:30.389Z,101026.31
2023-01-30T07:33:00.240Z,101029.75
2023-01-30T07:35:30.271Z,101016.81
2023-01-30T07:37:58.313Z,101011.59
2023-01-30T07:40:27.226Z,101013.31
2023-01-30T07:42:59.302Z,101023.59
2023-01-30T07:45:32.533Z,101021.03
2023-01-30T07:48:00.319Z,101033.97
2023-01-30T07:50:28.102Z,101021.00
2023-01-30T07:52:55.901Z,101029.66
2023-01-30T07:55:23.968Z,101035.69
2023-01-30T07:57:51.935Z,101031.41
2023-01-30T08:00:21.223Z,101035.72
2023-01-30T08:02:50.519Z,101031.38
2023-01-30T08:05:18.610Z,101040.03
2023-01-30T08:07:47.411Z,101046.97
2023-01-30T08:10:16.387Z,101050.44
2023-01-30T08:12:44.623Z,101051.31
2023-01-30T08:15:12.621Z,101040.13
2023-01-30T08:17:40.472Z,101035.78
2023-01-30T08:20:16.979Z,101051.34
2023-01-30T08:22:45.401Z,101051.28
2023-01-30T08:25:13.221Z,101040.06
2023-01-30T08:27:41.086Z,101037.50
2023-01-30T08:30:10.391Z,101038.34
2023-01-30T08:32:38.268Z,101038.34
2023-01-30T08:35:06.814Z,101036.69
2023-01-30T08:37:35.999Z,101023.75
2023-01-30T08:40:03.797Z,101035.84
2023-01-30T08:42:31.573Z,101031.59
2023-01-30T08:44:59.376Z,101029.91
2023-01-30T08:47:27.502Z,101042.97
2023-01-30T08:49:55.370Z,101048.16
2023-01-30T08:52:23.198Z,101052.53
2023-01-30T08:54:52.345Z,101065.50
2023-01-30T08:57:20.246Z,101064.66
2023-01-30T08:59:48.048Z,101064.78
2023-01-30T09:02:15.864Z,101056.28
2023-01-30T09:04:43.648Z,101047.81
2023-01-30T09:07:11.439Z,101049.47
2023-01-30T09:09:39.218Z,101052.03
2023-01-30T09:12:08.492Z,101052.06
2023-01-30T09:14:36.247Z,101040.88
2023-01-30T09:17:04.116Z,101050.59
2023-01-30T09:19:31.981Z,101054.91
2023-01-30T09:21:59.783Z,101060.22
2023-01-30T09:24:27.810Z,101067.22
2023-01-30T09:26:57.570Z,101062.91
2023-01-30T09:29:27.212Z,101068.09
2023-01-30T09:31:56.441Z,101065.47
2023-01-30T09:34:27.461Z,101057.59
2023-01-30T09:36:55.480Z,101047.19
2023-01-30T09:39:23.392Z,101054.13
2023-01-30T09:42:07.325Z,101054.94
2023-01-30T09:45:04.891Z,101060.03
2023-01-30T09:47:42.712Z,101059.31
2023-01-30T09:50:34.602Z,101061.03
2023-01-30T09:53:13.971Z,101067.13
2023-01-30T09:55:42.725Z,101058.22
2023-01-30T09:58:17.868Z,101054.63
2023-01-30T10:00:48.244Z,101055.88
2023-01-30T10:03:19.094Z,101061.88
2023-01-30T10:05:50.498Z,101069.78
2023-01-30T10:08:35.196Z,101070.63
2023-01-30T10:11:11.874Z,101067.13
2023-01-30T10:13:52.743Z,101068.06
2023-01-30T10:16:28.023Z,101070.44
2023-01-30T10:19:34.811Z,101076.75
2023-01-30T10:22:14.769Z,101089.75
2023-01-30T10:24:53.405Z,101085.47
2023-01-30T10:27:23.814Z,101084.59
2023-01-30T10:29:57.626Z,101073.31
2023-01-30T10:32:31.733Z,101090.59
2023-01-30T10:35:07.393Z,101076.78
2023-01-30T10:37:47.661Z,101088.06
2023-01-30T10:40:22.872Z,101089.75
2023-01-30T10:42:59.259Z,101095.84
2023-01-30T10:45:37.866Z,101089.75
2023-01-30T10:48:34.407Z,101088.94
2023-01-30T10:51:22.454Z,101077.69
2023-01-30T10:53:55.465Z,101090.69
2023-01-30T10:56:31.247Z,101083.72
2023-01-30T10:59:08.914Z,101095.91
2023-01-30T11:01:40.581Z,101112.38
2023-01-30T11:04:20.371Z,101101.09
2023-01-30T11:06:48.763Z,101112.38
2023-01-30T11:09:16.613Z,101099.38
2023-01-30T11:11:50.162Z,101121.94
2023-01-30T11:14:18.703Z,101107.19
2023-01-30T11:16:49.075Z,101108.03
2023-01-30T11:19:22.461Z,101114.13
2023-01-30T11:21:52.554Z,101102.81
2023-01-30T11:24:22.156Z,101108.03
2023-01-30T11:26:50.396Z,101108.91
2023-01-30T11:29:27.271Z,101110.63
2023-01-30T11:31:55.551Z,101110.63
2023-01-30T11:34:25.750Z,101101.09
2023-01-30T11:36:53.786Z,101108.00
2023-01-30T11:39:24.604Z,101109.75
2023-01-30T11:42:01.879Z,101117.56
2023-01-30T11:44:31.293Z,101114.97
2023-01-30T11:47:01.868Z,101108.91
2023-01-30T11:49:46.572Z,101094.13
2023-01-30T11:52:19.381Z,101088.06
2023-01-30T11:54:48.891Z,101091.50
2023-01-30T11:57:20.054Z,101089.78
2023-01-30T11:59:50.663Z,101095.88
2023-01-30T12:02:25.162Z,101095.88
2023-01-30T12:04:57.847Z,101094.09
2023-01-30T12:07:27.674Z,101085.44
2023-01-30T12:09:57.018Z,101096.72
2023-01-30T12:12:31.140Z,101099.31
2023-01-30T12:15:19.581Z,101103.66
2023-01-30T12:17:52.541Z,101084.59
2023-01-30T12:20:29.434Z,101102.81
2023-01-30T12:23:09.478Z,101104.53
2023-01-30T12:25:44.051Z,101103.66
2023-01-30T12:28:16.639Z,101101.94
2023-01-30T12:30:49.784Z,101107.16
2023-01-30T12:33:20.823Z,101111.50
2023-01-30T12:36:09.904Z,101106.25
2023-01-30T12:38:56.892Z,101108.88
2023-01-30T12:41:36.017Z,101096.72
2023-01-30T12:44:25.146Z,101118.38
2023-01-30T12:47:05.305Z,101122.69
2023-01-30T12:49:51.671Z,101115.75
2023-01-30T12:52:39.348Z,101114.88
2023-01-30T12:55:22.299Z,101124.41
2023-01-30T12:57:58.280Z,101127.00
2023-01-30T13:00:39.242Z,101135.66
2023-01-30T13:03:23.499Z,101131.34
2023-01-30T13:05:58.225Z,101129.63
2023-01-30T13:08:43.629Z,101137.44
2023-01-30T13:11:18.109Z,101144.38
2023-01-30T13:13:52.475Z,101145.28
2023-01-30T13:16:29.444Z,101141.81
2023-01-30T13:19:02.551Z,101151.31
2023-01-30T13:21:36.095Z,101147.00
2023-01-30T13:24:20.928Z,101137.53
2023-01-30T13:26:51.450Z,101150.59
2023-01-30T13:29:27.221Z,101135.78
2023-01-30T13:31:58.282Z,101152.31
2023-01-30T13:34:30.530Z,101152.25
2023-01-30T13:37:04.135Z,101169.63
2023-01-30T13:39:42.582Z,101172.19
2023-01-30T13:42:22.174Z,101176.56
2023-01-30T13:44:51.274Z,101180.88
2023-01-30T13:47:39.626Z,101167.84
2023-01-30T13:50:50.813Z,101190.38
2023-01-30T13:53:23.649Z,101185.13
2023-01-30T13:55:58.265Z,101187.75
2023-01-30T13:58:49.198Z,101183.44
2023-01-30T14:01:17.050Z,101191.22
2023-01-30T14:03:45.025Z,101200.69
2023-01-30T14:06:34.508Z,101201.59
2023-01-30T14:09:06.986Z,101199.88
2023-01-30T14:11:39.957Z,101205.94
2023-01-30T14:14:24.669Z,101210.28
2023-01-30T14:16:54.494Z,101204.22
2023-01-30T14:19:34.872Z,101218.97
2023-01-30T14:22:06.486Z,101223.25
2023-01-30T14:24:34.341Z,101236.25
2023-01-30T14:27:25.521Z,101223.25
2023-01-30T14:29:55.260Z,101249.25
2023-01-30T14:32:53.161Z,101238.84
2023-01-30T14:35:24.759Z,101242.34
2023-01-30T14:38:08.660Z,101241.50
2023-01-30T14:40:42.017Z,101243.25
2023-01-30T14:43:37.350Z,101245.88
2023-01-30T14:46:08.919Z,101254.56
2023-01-30T14:48:43.015Z,101258.00
2023-01-30T14:51:21.330Z,101251.97
2023-01-30T14:53:54.039Z,101253.69
2023-01-30T14:56:38.129Z,101262.34
2023-01-30T14:59:22.581Z,101261.44
2023-01-30T15:02:21.394Z,101266.69
2023-01-30T15:05:03.865Z,101271.00
2023-01-30T15:07:37.909Z,101271.88
2023-01-30T15:10:13.068Z,101286.66
2023-01-30T15:13:23.188Z,101287.53
2023-01-30T15:16:04.933Z,101285.75
2023-01-30T15:18:51.564Z,101290.91
2023-01-30T15:21:37.274Z,101299.59
2023-01-30T15:24:19.754Z,101291.75
2023-01-30T15:26:57.308Z,101298.66
2023-01-30T15:29:56.341Z,101301.25
2023-01-30T15:32:27.034Z,101308.16
2023-01-30T15:34:57.103Z,101315.97
2023-01-30T15:37:33.829Z,101328.03
2023-01-30T15:40:21.843Z,101326.25
2023-01-30T15:42:53.721Z,101335.78
2023-01-30T15:45:32.055Z,101331.44
2023-01-30T15:48:25.426Z,101340.09
2023-01-30T15:50:56.326Z,101337.50
2023-01-30T15:53:28.361Z,101340.94
2023-01-30T15:55:56.559Z,101349.59
2023-01-30T15:58:25.695Z,101347.81
2023-01-30T16:00:57.263Z,101346.94
2023-01-30T16:03:30.878Z,101353.84
2023-01-30T16:05:59.922Z,101366.84
2023-01-30T16:08:29.292Z,101371.13
2023-01-30T16:10:57.370Z,101374.63
2023-01-30T16:13:25.709Z,101385.88
2023-01-30T16:15:59.204Z,101388.47
2023-01-30T16:18:34.407Z,101392.78
2023-01-30T16:21:05.284Z,101395.38
2023-01-30T16:23:36.437Z,101396.22
2023-01-30T16:26:05.581Z,101399.66
2023-01-30T16:28:33.832Z,101405.72
2023-01-30T16:31:03.998Z,101413.47
2023-01-30T16:33:36.406Z,101410.81
2023-01-30T16:36:05.392Z,101422.81
2023-01-30T16:38:39.536Z,101424.50
2023-01-30T16:41:07.412Z,101428.78
2023-01-30T16:43:35.475Z,101426.19
2023-01-30T16:46:42.831Z,101437.44
2023-01-30T16:49:18.521Z,101435.72
2023-01-30T16:51:46.728Z,101453.94
2023-01-30T16:54:21.652Z,101456.53
2023-01-30T16:56:52.774Z,101462.59
2023-01-30T16:59:27.923Z,101461.66
2023-01-30T17:01:57.103Z,101460.75
2023-01-30T17:04:31.497Z,101465.84
2023-01-30T17:07:01.385Z,101478.78
2023-01-30T17:09:40.679Z,101474.41
2023-01-30T17:12:54.192Z,101473.50
2023-01-30T17:15:30.913Z,101479.59
2023-01-30T17:17:59.071Z,101481.31
2023-01-30T17:20:45.366Z,101483.94
2023-01-30T17:23:18.562Z,101491.69
2023-01-30T17:25:48.901Z,101504.66
2023-01-30T17:28:24.197Z,101507.25
2023-01-30T17:30:52.265Z,101514.19
2023-01-30T17:33:20.125Z,101508.06
2023-01-30T17:35:49.318Z,101506.34
2023-01-30T17:38:17.215Z,101515.06
2023-01-30T17:40:46.054Z,101509.00
2023-01-30T17:43:13.839Z,101506.34
2023-01-30T17:45:41.839Z,101517.66
2023-01-30T17:48:13.062Z,101511.59
2023-01-30T17:50:40.888Z,101527.16
2023-01-30T17:53:10.138Z,101533.22
2023-01-30T17:55:38.041Z,101532.31
2023-01-30T17:58:05.951Z,101537.47
2023-01-30T18:00:33.804Z,101528.78
2023-01-30T18:03:01.664Z,101541.84
2023-01-30T18:05:29.488Z,101548.75
2023-01-30T18:07:57.277Z,101553.13
2023-01-30T18:10:51.645Z,101551.44
2023-01-30T18:13:20.415Z,101555.72
2023-01-30T18:15:48.469Z,101556.50
2023-01-30T18:18:18.128Z,101572.06
2023-01-30T18:20:47.506Z,101582.44
2023-01-30T18:23:16.373Z,101576.38
2023-01-30T18:25:44.197Z,101591.94
2023-01-30T18:28:13.405Z,101591.84
2023-01-30T18:30:41.462Z,101597.00
2023-01-30T18:33:09.300Z,101590.16
2023-01-30T18:35:38.960Z,101589.16
2023-01-30T18:38:06.745Z,101592.59
2023-01-30T18:40:34.583Z,101597.75
2023-01-30T18:43:02.393Z,101596.91
2023-01-30T18:45:31.581Z,101601.19
2023-01-30T18:48:00.234Z,101600.19
2023-01-30T18:50:28.191Z,101593.94
2023-01-30T18:52:56.145Z,101598.16
2023-01-30T18:55:25.861Z,101594.59
2023-01-30T18:57:53.854Z,101594.66
2023-01-30T19:00:22.814Z,101601.53
2023-01-30T19:02:55.466Z,101603.22
2023-01-30T19:05:23.312Z,101608.41
2023-01-30T19:07:51.197Z,101604.09
2023-01-30T19:10:20.545Z,101605.66
2023-01-30T19:13:06.051Z,101606.53
2023-01-30T19:15:36.599Z,101611.50
2023-01-30T19:18:06.013Z,101606.19
2023-01-30T19:20:34.455Z,101616.69
2023-01-30T19:23:02.374Z,101607.13
2023-01-30T19:25:30.234Z,101627.97
2023-01-30T19:27:58.050Z,101633.19
2023-01-30T19:30:25.879Z,101628.91
2023-01-30T19:32:58.649Z,101635.91
2023-01-30T19:35:27.910Z,101640.22
2023-01-30T19:38:00.230Z,101651.53
2023-01-30T19:40:28.155Z,101648.94
2023-01-30T19:42:59.642Z,101656.81
2023-01-30T19:45:33.763Z,101656.81
2023-01-30T19:48:01.710Z,101667.19
2023-01-30T19:50:31.127Z,101664.66
2023-01-30T19:52:58.973Z,101671.53
2023-01-30T19:55:27.041Z,101670.66
2023-01-30T19:57:55.364Z,101675.91
2023-01-30T20:00:36.015Z,101678.50
2023-01-30T20:03:03.975Z,101673.22
2023-01-30T20:05:33.163Z,101680.16
2023-01-30T20:08:01.178Z,101675.81
2023-01-30T20:10:29.228Z,101680.88
2023-01-30T20:12:57.174Z,101692.13
2023-01-30T20:15:25.530Z,101685.19
2023-01-30T20:17:53.746Z,101694.66
2023-01-30T20:20:21.895Z,101698.09
2023-01-30T20:22:52.159Z,101698.97
2023-01-30T20:25:19.977Z,101695.50
2023-01-30T20:27:48.022Z,101704.16
2023-01-30T20:30:16.912Z,101705.88
2023-01-30T20:32:45.060Z,101705.00
2023-01-30T20:35:13.617Z,101703.22
2023-01-30T20:37:42.164Z,101703.28
2023-01-30T20:40:14.158Z,101695.56
2023-01-30T20:42:42.088Z,101715.53
2023-01-30T20:45:10.892Z,101714.66
2023-01-30T20:47:40.415Z,101716.44
2023-01-30T20:50:09.412Z,101722.50
2023-01-30T20:52:38.438Z,101718.97
2023-01-30T20:55:07.059Z,101716.31
2023-01-30T20:57:36.239Z,101723.25
2023-01-30T21:00:05.511Z,101719.72
2023-01-30T21:02:33.412Z,101735.25
2023-01-30T21:05:01.622Z,101739.47
2023-01-30T21:07:29.419Z,101732.59
2023-01-30T21:09:58.080Z,101738.59
2023-01-30T21:12:26.020Z,101751.50
2023-01-30T21:15:02.699Z,101741.06
2023-01-30T21:17:30.601Z,101741.06
2023-01-30T21:19:58.564Z,101745.41
2023-01-30T21:22:26.876Z,101749.66
2023-01-30T21:24:55.011Z,101746.97
2023-01-30T21:27:23.595Z,101737.34
2023-01-30T21:29:51.791Z,101738.09
2023-01-30T21:32:21.481Z,101741.69
2023-01-30T21:34:49.340Z,101741.72
2023-01-30T21:37:34.586Z,101759.97
2023-01-30T21:40:20.596Z,101767.69
2023-01-30T21:43:06.047Z,101764.22
2023-01-30T21:45:33.916Z,101764.06
2023-01-30T21:48:03.258Z,101769.34
2023-01-30T21:50:31.432Z,101776.13
2023-01-30T21:52:59.517Z,101768.31
2023-01-30T21:55:27.389Z,101773.50
2023-01-30T21:57:55.547Z,101784.69
2023-01-30T22:00:23.463Z,101783.88
2023-01-30T22:02:51.384Z,101790.69
2023-01-30T22:05:20.946Z,101791.44
2023-01-30T22:07:49.085Z,101792.31
2023-01-30T22:10:17.641Z,101793.97
2023-01-30T22:12:45.394Z,101787.97
2023-01-30T22:15:13.589Z,101800.78
2023-01-30T22:17:41.382Z,101804.28
2023-01-30T22:20:10.983Z,101805.03
2023-01-30T22:22:40.254Z,101812.84
2023-01-30T22:25:09.207Z,101805.84
2023-01-30T22:27:37.337Z,101817.03
2023-01-30T22:30:05.729Z,101813.69
2023-01-30T22:32:33.531Z,101805.91
2023-01-30T22:35:01.348Z,101810.25
2023-01-30T22:37:29.265Z,101815.53
2023-01-30T22:39:58.649Z,101819.91
2023-01-30T22:42:26.586Z,101815.66
2023-01-30T22:44:55.277Z,101814.78
2023-01-30T22:47:23.090Z,101818.25
2023-01-30T22:49:50.955Z,101827.88
2023-01-30T22:52:18.778Z,101833.00
2023-01-30T22:54:46.542Z,101821.66
2023-01-30T22:57:15.747Z,101831.22
2023-01-30T22:59:43.527Z,101825.09
2023-01-30T23:02:12.164Z,101813.00
2023-01-30T23:04:41.399Z,101823.38
2023-01-30T23:07:14.222Z,101817.38
2023-01-30T23:09:42.054Z,101824.25
2023-01-30T23:12:27.604Z,101819.06
2023-01-30T23:14:56.842Z,101837.16
2023-01-30T23:17:42.692Z,101837.97
2023-01-30T23:20:11.922Z,101827.47
2023-01-30T23:22:40.235Z,101829.97
2023-01-30T23:25:08.996Z,101829.91
2023-01-30T23:27:36.775Z,101826.44
2023-01-30T23:30:07.185Z,101813.47
2023-01-30T23:32:35.549Z,101823.84
2023-01-30T23:35:03.338Z,101827.31
2023-01-30T23:37:46.677Z,101825.59
2023-01-30T23:40:14.833Z,101830.72
2023-01-30T23:42:42.655Z,101825.53
2023-01-30T23:45:12.378Z,101816.88
2023-01-30T23:47:40.189Z,101824.66
2023-01-30T23:50:08.294Z,101828.91
2023-01-30T23:52:36.384Z,101825.47
2023-01-30T23:55:04.956Z,101824.53
2023-01-30T23:57:32.721Z,101826.22
